Time;durP1;ratioP1;P1;durP2;ratioP2;P2;SDS_P1;SDS_P2;PMS_P1;PMS_P2;Temp;Humidity;BMP_temperature;BMP_pressure;BME280_temperature;BME280_humidity;BME280_pressure;Samples;Min_cycle;Max_cycle;Signal;HPM_P1;HPM_P2
2022/10/27 00:00:15;;;;;;;;;;;17.60;72.80;;;;;;5080605;28;19917;-82
2022/10/27 00:02:42;;;;;;;;;;;17.60;72.80;;;;;;5075490;28;19916;-79
2022/10/27 00:05:07;;;;;;;;;;;17.60;72.90;;;;;;5080355;28;19984;-81
2022/10/27 00:07:37;;;;;;;;;;;17.60;72.80;;;;;;5104718;28;19928;-82
2022/10/27 00:10:03;;;;;;;;;;;17.60;72.90;;;;;;5106658;28;19913;-79
2022/10/27 00:12:29;;;;;;;;;;;17.60;72.90;;;;;;5088965;28;20387;-79
2022/10/27 00:14:55;;;;;;;;;;;17.60;72.90;;;;;;5069836;28;20006;-79
2022/10/27 00:17:20;;;;;;;;;;;17.50;72.80;;;;;;5092971;28;20038;-79
2022/10/27 00:19:46;;;;;;;;;;;17.50;72.80;;;;;;5099867;28;19916;-79
2022/10/27 00:22:12;;;;;;;;;;;17.50;72.90;;;;;;5092877;28;19923;-81
2022/10/27 00:24:37;;;;;;;;;;;17.50;72.90;;;;;;5105078;28;19998;-80
2022/10/27 00:27:03;;;;;;;;;;;17.50;72.90;;;;;;5098701;28;19928;-79
2022/10/27 00:29:29;;;;;;;;;;;17.50;72.90;;;;;;5079481;28;19912;-80
2022/10/27 00:31:54;;;;;;;;;;;17.50;72.90;;;;;;5089270;28;19963;-79
2022/10/27 00:34:20;;;;;;;;;;;17.50;72.90;;;;;;5072269;28;20372;-80
2022/10/27 00:36:45;;;;;;;;;;;17.50;72.90;;;;;;5095213;28;19963;-79
2022/10/27 00:39:11;;;;;;;;;;;17.50;72.90;;;;;;5101821;28;19959;-80
2022/10/27 00:41:38;;;;;;;;;;;17.50;72.90;;;;;;5082485;28;19917;-79
2022/10/27 00:44:22;;;;;;;;;;;17.50;73.00;;;;;;5080694;28;19923;-79
2022/10/27 00:46:49;;;;;;;;;;;17.40;72.90;;;;;;5092169;28;20023;-79
2022/10/27 00:49:17;;;;;;;;;;;17.40;72.90;;;;;;5102654;28;19966;-79
2022/10/27 00:52:02;;;;;;;;;;;17.40;72.90;;;;;;5092941;28;19912;-82
2022/10/27 00:54:30;;;;;;;;;;;17.40;72.90;;;;;;5100201;28;20393;-79
2022/10/27 00:56:56;;;;;;;;;;;17.40;73.00;;;;;;5082307;28;19912;-79
2022/10/27 00:59:22;;;;;;;;;;;17.40;73.00;;;;;;5100594;28;20030;-82
2022/10/27 01:01:49;;;;;;;;;;;17.40;73.00;;;;;;5075254;28;20382;-79
2022/10/27 01:04:16;;;;;;;;;;;17.40;73.00;;;;;;5085558;28;20342;-81
2022/10/27 01:06:42;;;;;;;;;;;17.40;73.00;;;;;;5096823;28;20014;-79
2022/10/27 01:09:08;;;;;;;;;;;17.30;72.90;;;;;;5081174;28;20002;-79
2022/10/27 01:11:33;;;;;;;;;;;17.30;73.00;;;;;;5104673;28;19962;-81
2022/10/27 01:13:59;;;;;;;;;;;17.30;73.00;;;;;;5103953;28;20337;-81
2022/10/27 01:16:32;;;;;;;;;;;17.30;73.00;;;;;;5077968;28;19923;-80
2022/10/27 01:19:01;;;;;;;;;;;17.30;73.00;;;;;;5098544;28;19912;-79
2022/10/27 01:21:38;;;;;;;;;;;17.30;73.00;;;;;;5089166;28;19947;-80
2022/10/27 01:24:13;;;;;;;;;;;17.30;73.00;;;;;;5089807;28;20279;-79
2022/10/27 01:26:38;;;;;;;;;;;17.30;73.00;;;;;;5090307;28;19920;-79
2022/10/27 01:29:23;;;;;;;;;;;17.30;73.10;;;;;;5099915;28;20055;-79
2022/10/27 01:32:07;;;;;;;;;;;17.30;73.10;;;;;;5062408;28;19997;-80
2022/10/27 01:34:41;;;;;;;;;;;17.20;73.00;;;;;;5074441;28;19995;-79
2022/10/27 01:37:11;;;;;;;;;;;17.20;73.00;;;;;;5100620;28;19912;-79
2022/10/27 01:39:40;;;;;;;;;;;17.20;73.10;;;;;;5100084;28;20326;-80
2022/10/27 01:42:08;;;;;;;;;;;17.20;73.00;;;;;;5088156;28;20372;-80
2022/10/27 01:44:36;;;;;;;;;;;17.10;73.00;;;;;;5087815;28;20652;-79
2022/10/27 01:47:02;;;;;;;;;;;17.10;73.00;;;;;;5099263;28;19947;-81
2022/10/27 01:49:35;;;;;;;;;;;17.10;73.00;;;;;;5088455;28;20397;-79
2022/10/27 01:52:04;;;;;;;;;;;17.10;73.00;;;;;;5087953;28;19916;-79
2022/10/27 01:54:30;;;;;;;;;;;17.10;73.00;;;;;;5076387;28;19937;-79
2022/10/27 01:57:18;;;;;;;;;;;17.10;73.00;;;;;;5091806;28;20029;-80
2022/10/27 01:59:58;;;;;;;;;;;17.10;73.00;;;;;;5104329;28;19927;-81
2022/10/27 02:02:39;;;;;;;;;;;17.00;73.00;;;;;;5084833;28;19968;-79
2022/10/27 02:05:05;;;;;;;;;;;17.10;73.00;;;;;;5089138;28;19920;-79
2022/10/27 02:07:37;;;;;;;;;;;17.00;73.00;;;;;;5085978;28;19926;-79
2022/10/27 02:10:08;;;;;;;;;;;17.10;73.00;;;;;;5099308;28;20004;-79
2022/10/27 02:12:35;;;;;;;;;;;17.00;73.00;;;;;;5091774;28;19916;-80
2022/10/27 02:15:03;;;;;;;;;;;17.00;73.10;;;;;;5090187;28;20280;-80
2022/10/27 02:17:31;;;;;;;;;;;17.00;73.00;;;;;;5084551;28;19913;-79
2022/10/27 02:19:58;;;;;;;;;;;17.00;73.00;;;;;;5092730;28;19998;-81
2022/10/27 02:22:25;;;;;;;;;;;16.90;73.00;;;;;;5081887;28;19916;-79
2022/10/27 02:24:51;;;;;;;;;;;16.90;73.00;;;;;;5092671;28;19912;-79
2022/10/27 02:27:29;;;;;;;;;;;16.90;73.00;;;;;;5075018;28;19934;-79
2022/10/27 02:29:56;;;;;;;;;;;16.90;73.00;;;;;;5083652;28;19927;-80
2022/10/27 02:32:22;;;;;;;;;;;16.90;73.00;;;;;;5105799;27;19961;-79
2022/10/27 02:34:49;;;;;;;;;;;16.90;73.00;;;;;;5112451;27;19916;-82
2022/10/27 02:37:19;;;;;;;;;;;16.90;73.10;;;;;;5064862;28;20372;-81
2022/10/27 02:39:45;;;;;;;;;;;16.90;73.10;;;;;;5103873;28;19913;-79
2022/10/27 02:42:10;;;;;;;;;;;16.80;73.00;;;;;;5081612;28;19965;-80
2022/10/27 02:44:36;;;;;;;;;;;16.80;73.00;;;;;;5102721;27;19939;-79
2022/10/27 02:47:02;;;;;;;;;;;16.80;73.00;;;;;;5090228;28;20018;-80
2022/10/27 02:49:27;;;;;;;;;;;16.80;73.10;;;;;;5093095;28;20003;-80
2022/10/27 02:51:53;;;;;;;;;;;16.80;73.10;;;;;;5081921;28;19927;-80
2022/10/27 02:54:18;;;;;;;;;;;16.80;73.10;;;;;;5109807;28;19962;-79
2022/10/27 02:56:44;;;;;;;;;;;16.70;73.10;;;;;;5084694;28;19912;-80
2022/10/27 02:59:10;;;;;;;;;;;16.70;73.10;;;;;;5088749;28;20268;-79
2022/10/27 03:01:35;;;;;;;;;;;16.70;73.20;;;;;;5077881;28;20562;-79
2022/10/27 03:04:01;;;;;;;;;;;16.70;73.20;;;;;;5092790;28;19912;-79
2022/10/27 03:06:26;;;;;;;;;;;16.70;73.20;;;;;;5091942;28;19924;-79
2022/10/27 03:08:52;;;;;;;;;;;16.60;73.20;;;;;;5085649;28;19916;-79
2022/10/27 03:11:18;;;;;;;;;;;16.60;73.20;;;;;;5101414;28;19916;-80
2022/10/27 03:13:43;;;;;;;;;;;16.60;73.20;;;;;;5087928;28;19973;-80
2022/10/27 03:16:09;;;;;;;;;;;16.60;73.20;;;;;;5097785;28;19916;-79
2022/10/27 03:18:34;;;;;;;;;;;16.60;73.20;;;;;;5088155;28;19919;-80
2022/10/27 03:21:00;;;;;;;;;;;16.60;73.20;;;;;;5080795;28;19922;-80
2022/10/27 03:23:25;;;;;;;;;;;16.60;73.30;;;;;;5084546;28;19930;-79
2022/10/27 03:25:51;;;;;;;;;;;16.60;73.30;;;;;;5087818;28;20380;-79
2022/10/27 03:28:17;;;;;;;;;;;16.60;73.30;;;;;;5095653;28;19920;-79
2022/10/27 03:30:42;;;;;;;;;;;16.50;73.20;;;;;;5088486;28;19930;-79
2022/10/27 03:33:08;;;;;;;;;;;16.50;73.20;;;;;;5104632;28;19920;-80
2022/10/27 03:35:33;;;;;;;;;;;16.50;73.20;;;;;;5098674;28;19924;-81
2022/10/27 03:38:00;;;;;;;;;;;16.50;73.30;;;;;;5093219;28;19920;-79
2022/10/27 03:40:26;;;;;;;;;;;16.50;73.30;;;;;;5106377;28;20002;-79
2022/10/27 03:42:56;;;;;;;;;;;16.50;73.30;;;;;;5093668;28;19935;-80
2022/10/27 03:45:22;;;;;;;;;;;16.50;73.30;;;;;;5091012;28;19922;-81
2022/10/27 03:47:47;;;;;;;;;;;16.50;73.40;;;;;;5098825;28;19920;-79
2022/10/27 03:50:13;;;;;;;;;;;16.40;73.30;;;;;;5089128;28;20079;-80
2022/10/27 03:52:38;;;;;;;;;;;16.40;73.40;;;;;;5075690;28;19953;-81
2022/10/27 03:55:04;;;;;;;;;;;16.40;73.30;;;;;;5103497;27;19923;-80
2022/10/27 03:57:30;;;;;;;;;;;16.40;73.40;;;;;;5103870;28;20356;-79
2022/10/27 03:59:55;;;;;;;;;;;16.40;73.40;;;;;;5095424;28;20391;-81
2022/10/27 04:02:21;;;;;;;;;;;16.40;73.30;;;;;;5090934;28;19954;-81
2022/10/27 04:04:46;;;;;;;;;;;16.40;73.40;;;;;;5090060;28;19961;-80
2022/10/27 04:07:12;;;;;;;;;;;16.40;73.40;;;;;;5102071;28;19924;-79
2022/10/27 04:09:38;;;;;;;;;;;16.40;73.40;;;;;;5089121;28;19916;-80
2022/10/27 04:12:04;;;;;;;;;;;16.40;73.40;;;;;;5083496;28;19927;-79
2022/10/27 04:14:30;;;;;;;;;;;16.40;73.40;;;;;;5091445;28;19966;-79
2022/10/27 04:16:55;;;;;;;;;;;16.30;73.40;;;;;;5106497;27;19920;-81
2022/10/27 04:19:21;;;;;;;;;;;16.40;73.40;;;;;;5088001;28;19924;-79
2022/10/27 04:21:47;;;;;;;;;;;16.40;73.40;;;;;;5096255;28;19926;-79
2022/10/27 04:24:12;;;;;;;;;;;16.30;73.40;;;;;;5090027;28;20011;-80
2022/10/27 04:26:38;;;;;;;;;;;16.30;73.40;;;;;;5102668;28;19935;-79
2022/10/27 04:29:04;;;;;;;;;;;16.30;73.50;;;;;;5099488;28;19970;-80
2022/10/27 04:31:29;;;;;;;;;;;16.30;73.40;;;;;;5086925;28;19931;-79
2022/10/27 04:33:55;;;;;;;;;;;16.30;73.50;;;;;;5077801;28;19923;-79
2022/10/27 04:36:21;;;;;;;;;;;16.20;73.40;;;;;;5078593;28;19958;-79
2022/10/27 04:38:50;;;;;;;;;;;16.30;73.50;;;;;;5082479;28;19920;-79
2022/10/27 04:41:15;;;;;;;;;;;16.20;73.50;;;;;;5091487;28;19912;-79
2022/10/27 04:43:41;;;;;;;;;;;16.30;73.50;;;;;;5081233;28;19923;-80
2022/10/27 04:46:07;;;;;;;;;;;16.20;73.50;;;;;;5097727;28;19942;-82
2022/10/27 04:48:32;;;;;;;;;;;16.20;73.50;;;;;;5108542;28;20352;-81
2022/10/27 04:50:58;;;;;;;;;;;16.20;73.50;;;;;;5074276;28;20583;-79
2022/10/27 04:53:23;;;;;;;;;;;16.20;73.50;;;;;;5096198;28;19924;-80
2022/10/27 04:55:50;;;;;;;;;;;16.20;73.50;;;;;;5072850;28;19916;-80
2022/10/27 04:58:15;;;;;;;;;;;16.20;73.50;;;;;;5112946;27;20360;-80
2022/10/27 05:00:41;;;;;;;;;;;16.20;73.50;;;;;;5080641;28;19949;-80
2022/10/27 05:03:07;;;;;;;;;;;16.20;73.50;;;;;;5083557;28;19920;-81
2022/10/27 05:05:33;;;;;;;;;;;16.20;73.90;;;;;;5101807;28;20422;-81
2022/10/27 05:08:02;;;;;;;;;;;16.20;73.60;;;;;;5076686;28;20395;-81
2022/10/27 05:10:29;;;;;;;;;;;16.20;73.60;;;;;;5082807;28;19923;-81
2022/10/27 05:12:54;;;;;;;;;;;16.10;73.50;;;;;;5086208;28;19923;-79
2022/10/27 05:15:20;;;;;;;;;;;16.10;73.50;;;;;;5093032;28;19992;-79
2022/10/27 05:17:46;;;;;;;;;;;16.10;73.50;;;;;;5089427;28;19965;-78
2022/10/27 05:20:11;;;;;;;;;;;16.10;73.50;;;;;;5101517;28;20345;-79
2022/10/27 05:22:38;;;;;;;;;;;16.10;73.60;;;;;;5099312;28;19916;-80
2022/10/27 05:25:04;;;;;;;;;;;16.10;73.60;;;;;;5092452;28;19908;-80
2022/10/27 05:27:31;;;;;;;;;;;16.10;73.60;;;;;;5098723;28;19928;-80
2022/10/27 05:29:56;;;;;;;;;;;16.10;73.70;;;;;;5099694;28;19912;-80
2022/10/27 05:32:22;;;;;;;;;;;16.10;73.60;;;;;;5085179;28;20420;-80
2022/10/27 05:34:48;;;;;;;;;;;16.10;73.60;;;;;;5094260;28;19912;-80
2022/10/27 05:37:14;;;;;;;;;;;16.10;73.60;;;;;;5104160;28;20368;-79
2022/10/27 05:39:39;;;;;;;;;;;16.10;73.60;;;;;;5106563;28;19916;-80
2022/10/27 05:42:05;;;;;;;;;;;16.00;73.60;;;;;;5101397;28;19931;-79
2022/10/27 05:44:31;;;;;;;;;;;16.00;73.60;;;;;;5101550;28;20458;-80
2022/10/27 05:46:56;;;;;;;;;;;16.00;73.60;;;;;;5105267;28;20441;-81
2022/10/27 05:49:22;;;;;;;;;;;16.00;73.60;;;;;;5105139;28;19951;-79
2022/10/27 05:51:48;;;;;;;;;;;16.00;73.60;;;;;;5090332;28;20026;-80
2022/10/27 05:54:14;;;;;;;;;;;16.00;73.60;;;;;;5097045;28;20014;-79
2022/10/27 05:56:39;;;;;;;;;;;16.00;73.60;;;;;;5095317;28;20313;-80
2022/10/27 05:59:05;;;;;;;;;;;16.00;73.60;;;;;;5109368;27;20261;-80
2022/10/27 06:01:31;;;;;;;;;;;16.00;73.60;;;;;;5091564;28;20288;-80
2022/10/27 06:03:56;;;;;;;;;;;16.00;73.60;;;;;;5079115;28;20001;-79
2022/10/27 06:06:22;;;;;;;;;;;16.00;73.60;;;;;;5119438;27;19920;-79
2022/10/27 06:08:47;;;;;;;;;;;16.00;73.60;;;;;;5085962;28;19920;-80
2022/10/27 06:11:14;;;;;;;;;;;16.00;73.60;;;;;;5077302;28;19924;-80
2022/10/27 06:13:39;;;;;;;;;;;16.00;73.70;;;;;;5106334;28;19947;-80
2022/10/27 06:16:05;;;;;;;;;;;15.90;73.60;;;;;;5102723;28;19958;-80
2022/10/27 06:18:30;;;;;;;;;;;15.90;73.60;;;;;;5093739;28;19916;-79
2022/10/27 06:20:56;;;;;;;;;;;15.90;73.60;;;;;;5088065;28;19958;-79
2022/10/27 06:23:22;;;;;;;;;;;15.90;73.60;;;;;;5090211;28;19922;-80
2022/10/27 06:25:47;;;;;;;;;;;15.90;73.60;;;;;;5088665;28;19920;-79
2022/10/27 06:28:13;;;;;;;;;;;15.90;73.60;;;;;;5084445;28;19924;-79
2022/10/27 06:30:39;;;;;;;;;;;15.90;73.70;;;;;;5085771;28;19942;-79
2022/10/27 06:33:04;;;;;;;;;;;15.90;73.60;;;;;;5089290;28;19916;-79
2022/10/27 06:35:30;;;;;;;;;;;15.90;73.70;;;;;;5077115;28;20256;-78
2022/10/27 06:37:56;;;;;;;;;;;15.90;73.70;;;;;;5104301;28;19912;-79
2022/10/27 06:40:21;;;;;;;;;;;15.80;73.60;;;;;;5072897;28;19908;-79
2022/10/27 06:42:49;;;;;;;;;;;15.80;73.70;;;;;;5090184;28;19912;-80
2022/10/27 06:45:15;;;;;;;;;;;15.90;73.80;;;;;;5072228;28;19922;-78
2022/10/27 06:47:41;;;;;;;;;;;15.80;73.70;;;;;;5086634;28;19928;-79
2022/10/27 06:50:07;;;;;;;;;;;15.90;73.70;;;;;;5088449;28;19913;-80
2022/10/27 06:52:36;;;;;;;;;;;15.80;73.70;;;;;;5069940;28;20431;-81
2022/10/27 06:55:02;;;;;;;;;;;15.80;73.70;;;;;;5102176;28;20246;-79
2022/10/27 06:57:27;;;;;;;;;;;15.80;73.70;;;;;;5072053;28;19962;-79
2022/10/27 06:59:53;;;;;;;;;;;15.80;73.70;;;;;;5069681;28;20019;-79
2022/10/27 07:02:19;;;;;;;;;;;15.80;73.70;;;;;;5077899;28;19912;-79
2022/10/27 07:04:44;;;;;;;;;;;15.80;73.70;;;;;;5082453;28;19916;-80
2022/10/27 07:07:10;;;;;;;;;;;15.80;73.70;;;;;;5077083;28;21036;-80
2022/10/27 07:09:35;;;;;;;;;;;15.80;73.70;;;;;;5088422;28;19923;-80
2022/10/27 07:12:01;;;;;;;;;;;15.80;73.70;;;;;;5111717;28;20024;-80
2022/10/27 07:14:27;;;;;;;;;;;15.80;73.70;;;;;;5077497;28;19924;-79
2022/10/27 07:16:52;;;;;;;;;;;15.80;73.70;;;;;;5072345;28;19920;-79
2022/10/27 07:19:18;;;;;;;;;;;15.80;73.70;;;;;;5094986;28;19965;-80
2022/10/27 07:21:43;;;;;;;;;;;15.80;73.80;;;;;;5101005;28;20388;-80
2022/10/27 07:24:09;;;;;;;;;;;15.80;73.70;;;;;;5084620;28;19945;-80
2022/10/27 07:26:35;;;;;;;;;;;15.80;73.70;;;;;;5078791;28;19921;-80
2022/10/27 07:29:00;;;;;;;;;;;15.80;73.80;;;;;;5092872;28;19937;-80
2022/10/27 07:31:26;;;;;;;;;;;15.80;73.80;;;;;;5071239;28;19932;-80
2022/10/27 07:33:51;;;;;;;;;;;15.80;73.80;;;;;;5081002;28;20303;-79
2022/10/27 07:36:17;;;;;;;;;;;15.80;73.80;;;;;;5083517;28;19924;-79
2022/10/27 07:38:43;;;;;;;;;;;15.80;73.80;;;;;;5075105;28;19948;-79
2022/10/27 07:41:08;;;;;;;;;;;15.80;74.40;;;;;;5101714;28;19912;-79
2022/10/27 07:43:35;;;;;;;;;;;15.80;73.80;;;;;;5103532;28;19941;-80
2022/10/27 07:46:01;;;;;;;;;;;15.80;73.80;;;;;;5096404;28;19922;-80
2022/10/27 07:48:27;;;;;;;;;;;15.80;73.80;;;;;;5102764;28;20271;-80
2022/10/27 07:50:54;;;;;;;;;;;15.80;73.80;;;;;;5086968;28;20273;-80
2022/10/27 07:53:19;;;;;;;;;;;15.80;73.80;;;;;;5070074;28;19943;-79
2022/10/27 07:55:45;;;;;;;;;;;15.80;73.80;;;;;;5097200;28;19966;-79
2022/10/27 07:58:12;;;;;;;;;;;15.80;73.90;;;;;;5091482;28;19912;-80
2022/10/27 08:00:39;;;;;;;;;;;15.80;73.90;;;;;;5083323;28;20367;-81
2022/10/27 08:03:05;;;;;;;;;;;15.80;73.90;;;;;;5091390;28;19912;-80
2022/10/27 08:05:32;;;;;;;;;;;15.80;73.90;;;;;;5088224;28;19920;-80
2022/10/27 08:08:02;;;;;;;;;;;15.90;73.90;;;;;;5082970;28;19917;-80
2022/10/27 08:10:28;;;;;;;;;;;15.90;73.90;;;;;;5096423;28;20364;-80
2022/10/27 08:12:54;;;;;;;;;;;15.90;73.90;;;;;;5093861;28;20420;-80
2022/10/27 08:15:19;;;;;;;;;;;15.90;73.90;;;;;;5059630;28;19924;-81
2022/10/27 08:17:49;;;;;;;;;;;15.90;73.90;;;;;;5076018;28;19908;-79
2022/10/27 08:20:15;;;;;;;;;;;15.90;73.90;;;;;;5100425;28;20002;-80
2022/10/27 08:22:40;;;;;;;;;;;15.90;73.90;;;;;;5092822;28;20653;-79
2022/10/27 08:25:06;;;;;;;;;;;15.90;73.80;;;;;;5083970;28;19916;-80
2022/10/27 08:27:32;;;;;;;;;;;15.90;73.80;;;;;;5094862;28;19928;-80
2022/10/27 08:29:58;;;;;;;;;;;15.90;73.80;;;;;;5088316;28;19915;-80
2022/10/27 08:32:23;;;;;;;;;;;15.90;73.90;;;;;;5097058;28;20767;-80
2022/10/27 08:34:49;;;;;;;;;;;15.90;73.80;;;;;;5082206;28;20003;-80
2022/10/27 08:37:15;;;;;;;;;;;15.90;73.90;;;;;;5080686;28;20395;-80
2022/10/27 08:39:40;;;;;;;;;;;16.00;73.90;;;;;;5113230;27;19912;-80
2022/10/27 08:42:09;;;;;;;;;;;16.00;73.90;;;;;;5106917;28;20010;-79
2022/10/27 08:44:43;;;;;;;;;;;16.00;73.90;;;;;;5102106;28;20271;-82
2022/10/27 08:47:17;;;;;;;;;;;16.00;73.90;;;;;;5111240;27;19969;-81
2022/10/27 08:49:43;;;;;;;;;;;16.00;73.90;;;;;;5066133;28;19912;-80
2022/10/27 08:52:30;;;;;;;;;;;16.00;73.90;;;;;;5092070;28;19908;-81
2022/10/27 08:55:03;;;;;;;;;;;16.00;73.90;;;;;;5102779;28;20424;-81
2022/10/27 08:57:32;;;;;;;;;;;16.10;73.90;;;;;;5109943;28;19915;-80
2022/10/27 08:59:58;;;;;;;;;;;16.10;74.00;;;;;;5085961;28;19972;-81
2022/10/27 09:02:24;;;;;;;;;;;16.00;73.90;;;;;;5083859;28;19919;-82
2022/10/27 09:05:04;;;;;;;;;;;16.10;73.90;;;;;;5092502;28;19919;-80
2022/10/27 09:07:49;;;;;;;;;;;16.10;73.90;;;;;;5099329;28;19924;-81
2022/10/27 09:10:33;;;;;;;;;;;16.10;73.90;;;;;;5096845;28;19912;-81
2022/10/27 09:13:06;;;;;;;;;;;16.20;74.00;;;;;;5082517;28;20380;-80
2022/10/27 09:15:35;;;;;;;;;;;16.20;74.00;;;;;;5102107;28;19912;-81
2022/10/27 09:18:05;;;;;;;;;;;16.20;73.90;;;;;;5088699;28;19916;-80
2022/10/27 09:20:31;;;;;;;;;;;16.20;73.90;;;;;;5087016;28;20684;-81
2022/10/27 09:22:58;;;;;;;;;;;16.30;74.00;;;;;;5103082;28;19950;-82
2022/10/27 09:25:23;;;;;;;;;;;16.30;74.00;;;;;;5096638;28;20049;-81
2022/10/27 09:27:54;;;;;;;;;;;16.30;73.90;;;;;;5098457;28;20035;-82
2022/10/27 09:30:19;;;;;;;;;;;16.30;73.90;;;;;;5097520;28;20429;-81
2022/10/27 09:32:47;;;;;;;;;;;16.40;73.90;;;;;;5103437;28;20014;-82
2022/10/27 09:35:15;;;;;;;;;;;16.40;73.90;;;;;;5103551;28;20317;-81
2022/10/27 09:37:41;;;;;;;;;;;16.40;73.90;;;;;;5112074;27;19908;-80
2022/10/27 09:40:17;;;;;;;;;;;16.40;73.90;;;;;;5105536;28;19912;-81
2022/10/27 09:42:44;;;;;;;;;;;16.50;73.90;;;;;;5084057;28;20001;-81
2022/10/27 09:45:20;;;;;;;;;;;16.50;73.90;;;;;;5109146;27;19923;-82
2022/10/27 09:47:48;;;;;;;;;;;16.60;74.00;;;;;;5089699;28;20015;-81
2022/10/27 09:50:16;;;;;;;;;;;16.60;74.00;;;;;;5097917;28;19912;-81
2022/10/27 09:52:42;;;;;;;;;;;16.60;73.90;;;;;;5094027;28;19912;-80
2022/10/27 09:55:09;;;;;;;;;;;16.70;74.00;;;;;;5086266;28;19966;-80
2022/10/27 09:57:35;;;;;;;;;;;16.70;73.90;;;;;;5083677;28;20001;-81
2022/10/27 10:00:04;;;;;;;;;;;16.80;74.00;;;;;;5090211;28;19973;-81
2022/10/27 10:02:38;;;;;;;;;;;16.80;74.00;;;;;;5082000;28;19905;-82
2022/10/27 10:05:21;;;;;;;;;;;16.80;74.00;;;;;;5102558;28;19921;-82
2022/10/27 10:07:46;;;;;;;;;;;16.80;73.90;;;;;;5073768;28;19916;-80
2022/10/27 10:10:26;;;;;;;;;;;16.90;74.00;;;;;;5090670;28;19920;-83
2022/10/27 10:13:01;;;;;;;;;;;16.90;74.00;;;;;;5087835;28;20467;-80
2022/10/27 10:15:27;;;;;;;;;;;17.00;74.00;;;;;;5088692;28;19912;-82
2022/10/27 10:17:55;;;;;;;;;;;17.00;74.00;;;;;;5105039;28;20368;-81
2022/10/27 10:20:35;;;;;;;;;;;17.10;74.10;;;;;;5071355;28;19912;-80
2022/10/27 10:23:02;;;;;;;;;;;17.10;74.10;;;;;;5086888;28;19912;-81
2022/10/27 10:25:32;;;;;;;;;;;17.10;74.10;;;;;;5086429;28;19958;-80
2022/10/27 10:28:05;;;;;;;;;;;17.20;74.10;;;;;;5100234;28;20423;-81
2022/10/27 10:30:32;;;;;;;;;;;17.30;74.10;;;;;;5089336;28;19920;-81
2022/10/27 10:32:59;;;;;;;;;;;17.30;74.10;;;;;;5085426;28;19912;-81
2022/10/27 10:35:40;;;;;;;;;;;17.30;74.10;;;;;;5082387;28;19926;-82
2022/10/27 10:38:25;;;;;;;;;;;17.40;74.20;;;;;;5090070;28;19955;-82
2022/10/27 10:41:00;;;;;;;;;;;17.40;74.10;;;;;;5100591;28;19919;-83
2022/10/27 10:43:25;;;;;;;;;;;17.50;74.20;;;;;;5087145;28;19919;-85
2022/10/27 10:45:52;;;;;;;;;;;17.50;74.20;;;;;;5085333;28;19912;-83
2022/10/27 10:48:41;;;;;;;;;;;17.50;74.20;;;;;;5068796;28;19920;-82
2022/10/27 10:51:09;;;;;;;;;;;17.60;74.20;;;;;;5102630;28;19916;-83
2022/10/27 10:53:41;;;;;;;;;;;17.60;74.20;;;;;;5089812;28;19909;-84
2022/10/27 10:56:18;;;;;;;;;;;17.70;74.30;;;;;;5100588;28;19919;-84
2022/10/27 10:58:45;;;;;;;;;;;17.70;74.30;;;;;;5081252;28;19916;-84
2022/10/27 11:01:11;;;;;;;;;;;17.80;74.30;;;;;;5086053;28;19908;-84
2022/10/27 11:03:39;;;;;;;;;;;17.80;74.30;;;;;;5087413;28;19920;-83
2022/10/27 11:06:14;;;;;;;;;;;17.90;74.30;;;;;;5072627;28;19909;-83
2022/10/27 11:08:42;;;;;;;;;;;17.90;74.30;;;;;;5108210;28;19920;-84
2022/10/27 11:11:12;;;;;;;;;;;17.90;74.30;;;;;;5091697;28;19948;-84
2022/10/27 11:13:41;;;;;;;;;;;17.90;74.30;;;;;;5102397;28;20274;-84
2022/10/27 11:16:08;;;;;;;;;;;18.00;74.30;;;;;;5075535;28;20319;-84
2022/10/27 11:18:43;;;;;;;;;;;18.10;74.30;;;;;;5081242;28;19919;-87
2022/10/27 11:21:11;;;;;;;;;;;18.10;74.30;;;;;;5086948;28;19916;-85
2022/10/27 11:23:57;;;;;;;;;;;18.20;74.30;;;;;;5101142;28;19930;-85
2022/10/27 11:26:26;;;;;;;;;;;18.20;74.30;;;;;;5062096;28;19951;-85
2022/10/27 11:28:52;;;;;;;;;;;18.20;74.30;;;;;;5111321;28;20000;-86
2022/10/27 11:31:36;;;;;;;;;;;18.20;74.30;;;;;;5108935;28;19952;-84
2022/10/27 11:34:29;;;;;;;;;;;18.30;74.30;;;;;;5086763;28;19912;-83
2022/10/27 11:37:07;;;;;;;;;;;18.40;74.30;;;;;;5108577;28;20418;-84
2022/10/27 11:39:43;;;;;;;;;;;18.40;74.30;;;;;;5087589;28;19935;-84
2022/10/27 11:42:17;;;;;;;;;;;18.40;74.30;;;;;;5076180;28;19912;-84
2022/10/27 11:45:06;;;;;;;;;;;18.50;74.30;;;;;;5089564;28;20002;-84
2022/10/27 11:47:32;;;;;;;;;;;18.50;74.30;;;;;;5109529;28;19969;-83
2022/10/27 11:50:02;;;;;;;;;;;18.60;74.30;;;;;;5096458;28;19908;-84
2022/10/27 11:52:27;;;;;;;;;;;18.60;74.30;;;;;;5091105;28;19919;-84
2022/10/27 11:54:53;;;;;;;;;;;18.70;75.00;;;;;;5099810;28;19916;-85
2022/10/27 11:57:31;;;;;;;;;;;18.70;74.30;;;;;;5099185;28;20023;-85
2022/10/27 12:00:01;;;;;;;;;;;18.80;74.30;;;;;;5103543;28;19916;-85
2022/10/27 12:02:40;;;;;;;;;;;18.80;74.30;;;;;;5103733;28;19912;-84
2022/10/27 12:05:09;;;;;;;;;;;18.90;74.30;;;;;;5089483;28;19912;-84
2022/10/27 12:07:47;;;;;;;;;;;18.90;74.30;;;;;;5091333;28;19958;-84
2022/10/27 12:10:36;;;;;;;;;;;18.90;74.30;;;;;;5097258;28;19926;-84
2022/10/27 12:13:05;;;;;;;;;;;19.00;74.30;;;;;;5066537;28;19916;-82
2022/10/27 12:15:30;;;;;;;;;;;19.00;74.30;;;;;;5108740;28;19930;-84
2022/10/27 12:17:59;;;;;;;;;;;19.10;74.30;;;;;;5100053;28;19916;-83
2022/10/27 12:20:38;;;;;;;;;;;19.10;74.30;;;;;;5090845;28;19908;-85
2022/10/27 12:23:09;;;;;;;;;;;19.10;74.30;;;;;;5098075;28;19916;-83
2022/10/27 12:25:57;;;;;;;;;;;19.20;74.30;;;;;;5111983;27;19922;-82
2022/10/27 12:28:24;;;;;;;;;;;19.20;74.30;;;;;;5086944;28;19921;-82
2022/10/27 12:30:50;;;;;;;;;;;19.30;74.30;;;;;;5077450;28;19935;-83
2022/10/27 12:33:30;;;;;;;;;;;19.30;74.20;;;;;;5099170;28;19912;-82
2022/10/27 12:36:14;;;;;;;;;;;19.30;74.20;;;;;;5102162;28;19919;-83
2022/10/27 12:38:44;;;;;;;;;;;19.40;74.30;;;;;;5091445;28;19957;-82
2022/10/27 12:41:29;;;;;;;;;;;19.40;74.80;;;;;;5092647;28;19955;-81
2022/10/27 12:44:02;;;;;;;;;;;19.40;74.20;;;;;;5098634;28;20391;-81
2022/10/27 12:46:46;;;;;;;;;;;19.50;74.20;;;;;;5109313;28;19919;-82
2022/10/27 12:49:16;;;;;;;;;;;19.50;74.10;;;;;;5069497;28;19952;-82
2022/10/27 12:51:45;;;;;;;;;;;19.60;74.20;;;;;;5103923;28;19912;-81
2022/10/27 12:54:29;;;;;;;;;;;19.60;74.10;;;;;;5107019;28;19908;-82
2022/10/27 12:57:15;;;;;;;;;;;19.60;74.10;;;;;;5064652;28;19961;-82
2022/10/27 13:00:02;;;;;;;;;;;19.70;74.10;;;;;;5093661;28;20722;-82
2022/10/27 13:02:46;;;;;;;;;;;19.70;74.10;;;;;;5084841;28;19912;-82
2022/10/27 13:05:18;;;;;;;;;;;19.70;74.00;;;;;;5077259;28;19989;-82
2022/10/27 13:08:02;;;;;;;;;;;19.80;74.00;;;;;;5111999;27;19923;-82
2022/10/27 13:10:31;;;;;;;;;;;19.80;74.00;;;;;;5099959;28;19908;-83
2022/10/27 13:12:57;;;;;;;;;;;19.80;74.00;;;;;;5105733;28;19908;-82
2022/10/27 13:15:38;;;;;;;;;;;19.80;73.90;;;;;;5088940;28;20057;-81
2022/10/27 13:18:04;;;;;;;;;;;19.90;73.90;;;;;;5089303;28;19916;-84
2022/10/27 13:20:38;;;;;;;;;;;19.90;73.90;;;;;;5078251;28;20050;-84
2022/10/27 13:23:17;;;;;;;;;;;19.90;73.90;;;;;;5085514;28;19951;-84
2022/10/27 13:25:46;;;;;;;;;;;19.90;73.80;;;;;;5100097;28;20344;-84
2022/10/27 13:28:31;;;;;;;;;;;20.00;73.80;;;;;;5098905;28;19916;-83
2022/10/27 13:31:16;;;;;;;;;;;20.00;73.80;;;;;;5101143;28;19920;-84
2022/10/27 13:34:15;;;;;;;;;;;20.00;73.70;;;;;;5086430;28;19912;-83
2022/10/27 13:36:41;;;;;;;;;;;20.00;73.70;;;;;;5092370;28;20270;-84
2022/10/27 13:39:12;;;;;;;;;;;20.10;73.60;;;;;;5068336;28;19916;-84
2022/10/27 13:41:50;;;;;;;;;;;20.10;73.60;;;;;;5110255;27;20383;-84
2022/10/27 13:44:27;;;;;;;;;;;20.20;73.60;;;;;;5102332;28;19908;-83
2022/10/27 13:47:01;;;;;;;;;;;20.10;73.60;;;;;;5094395;28;19923;-83
2022/10/27 13:49:39;;;;;;;;;;;20.20;73.60;;;;;;5092854;28;19934;-83
2022/10/27 13:52:13;;;;;;;;;;;20.20;73.60;;;;;;5103257;28;19926;-83
2022/10/27 13:54:49;;;;;;;;;;;20.20;73.50;;;;;;5103841;28;19916;-85
2022/10/27 13:57:34;;;;;;;;;;;20.20;73.50;;;;;;5090411;28;20195;-82
2022/10/27 14:00:08;;;;;;;;;;;20.30;73.50;;;;;;5089900;28;19912;-81
2022/10/27 14:03:01;;;;;;;;;;;20.20;73.40;;;;;;5102388;28;19919;-82
2022/10/27 14:05:30;;;;;;;;;;;20.30;73.50;;;;;;5091993;28;20415;-83
2022/10/27 14:07:56;;;;;;;;;;;20.30;73.40;;;;;;5091791;28;19959;-87
2022/10/27 14:10:21;;;;;;;;;;;20.30;73.40;;;;;;5095709;28;19978;-83
2022/10/27 14:12:47;;;;;;;;;;;20.30;73.30;;;;;;5090465;28;19916;-85
2022/10/27 14:15:27;;;;;;;;;;;20.40;74.00;;;;;;5079513;28;19924;-83
2022/10/27 14:17:53;;;;;;;;;;;20.40;73.30;;;;;;5092199;28;20400;-83
2022/10/27 14:20:23;;;;;;;;;;;20.40;73.30;;;;;;5090136;28;19947;-83
2022/10/27 14:22:49;;;;;;;;;;;20.40;73.30;;;;;;5094268;28;19912;-83
2022/10/27 14:25:25;;;;;;;;;;;20.40;73.20;;;;;;5095207;28;20263;-84
2022/10/27 14:28:09;;;;;;;;;;;20.40;73.20;;;;;;5083338;28;19973;-83